Portada
METAR-TAF:

METAR-TAF

Aeropuertos :

Aeropuerto Internacional Rey Fahd

Dammam, Arabia Saudita

latitud: 26-28N, longitud: 049-47E, altitud: 22 m

Observación

El informe se hizo hace 39 minutos, a las 12:00 UTC
Viento 14 kt del norte
Temperatura 24°C
Humedad 24%
Presión 1016 hPa
Visibilidad 10 km o más
sin nubes por debajo de 1500 m y sin presencia de cumulonimbus.

METAR: OEDF 271200Z 36014KT CAVOK 24/02 Q1016 NOSIG

Hora: 15:39 (12:39 UTC)

Pronóstico

El informe se hizo hace 3 horas y 39 minutos, a las 09:00 UTC
Pronóstico válido del 27 a las 12 UTC al 28 a las 18 UTC
Viento 12 kt del norte
Visibilidad 10 km o más
sin nubes por debajo de 1500 m y sin presencia de cumulonimbus.
Evolucionando progresivamente
del 27 a las 16 UTC al 27 a las 18 UTC
Viento 4 kt del oeste

TAF: OEDF 270900Z 2712/2818 35012KT CAVOK BECMG 2716/2718 28004KT

Observaciones y pronósticos meteorológicos de más de 4000 aeropuertos (mensajes METAR y TAF).

Los puntos amarillos y rojos representan las estaciones disponibles.

Ponga el ratón en el punto deseado para ver el nombre de la estación.

Haga clic para ver las observaciones y los pronósticos meteorológicos.

Para cambiar el mapa : haga clic en los botones verdes con una cruz de color negro para hacer un zoom, en el botón verde con un guión para alejar o en las flechas verdes para mapas adyacentes.


METAR-TAF: